createdAt,value
2022-08-18T00:00:51.426Z,21.58
2022-08-18T00:03:59.186Z,15.55
2022-08-18T00:07:08.887Z,16.85
2022-08-18T00:10:15.596Z,16.67
2022-08-18T00:13:21.027Z,20.30
2022-08-18T00:16:23.224Z,18.42
2022-08-18T00:19:45.327Z,15.40
2022-08-18T00:22:50.036Z,16.23
2022-08-18T00:25:52.126Z,20.13
2022-08-18T00:28:54.313Z,21.25
2022-08-18T00:31:56.359Z,21.38
2022-08-18T00:35:04.701Z,17.83
2022-08-18T00:38:08.389Z,16.17
2022-08-18T00:41:27.567Z,16.13
2022-08-18T00:44:29.465Z,18.65
2022-08-18T00:47:41.301Z,16.80
2022-08-18T00:51:02.033Z,16.80
2022-08-18T00:54:13.559Z,16.90
2022-08-18T00:57:19.184Z,20.10
2022-08-18T01:00:22.256Z,16.48
2022-08-18T01:03:25.317Z,20.80
2022-08-18T01:06:34.704Z,17.00
2022-08-18T01:09:36.759Z,19.15
2022-08-18T01:12:45.977Z,18.80
2022-08-18T01:15:48.575Z,19.35
2022-08-18T01:19:09.231Z,20.15
2022-08-18T01:22:24.455Z,18.50
2022-08-18T01:25:45.446Z,18.25
2022-08-18T01:28:49.493Z,20.38
2022-08-18T01:31:56.027Z,21.92
2022-08-18T01:34:59.491Z,24.25
2022-08-18T01:38:01.568Z,24.08
2022-08-18T01:41:26.002Z,27.70
2022-08-18T01:44:27.179Z,23.92
2022-08-18T01:47:29.206Z,23.38
2022-08-18T01:50:49.996Z,26.48
2022-08-18T01:53:51.931Z,30.02
2022-08-18T01:56:55.246Z,27.95
2022-08-18T02:00:00.934Z,25.42
2022-08-18T02:03:08.699Z,26.63
2022-08-18T02:06:14.719Z,27.52
2022-08-18T02:09:17.287Z,27.27
2022-08-18T02:12:26.355Z,28.35
2022-08-18T02:15:28.558Z,27.65
2022-08-18T02:18:47.449Z,25.60
2022-08-18T02:21:52.751Z,27.65
2022-08-18T02:24:57.494Z,29.88
2022-08-18T02:27:59.647Z,26.50
2022-08-18T02:31:16.632Z,26.88
2022-08-18T02:34:18.786Z,26.55
2022-08-18T02:37:21.708Z,31.05
2022-08-18T02:40:23.789Z,26.42
2022-08-18T02:43:26.803Z,28.45
2022-08-18T02:46:29.990Z,29.00
2022-08-18T02:49:33.357Z,30.17
2022-08-18T02:52:35.604Z,29.02
2022-08-18T02:55:37.573Z,37.03
2022-08-18T02:58:39.690Z,29.38
2022-08-18T03:01:45.032Z,29.25
2022-08-18T03:04:47.471Z,32.40
2022-08-18T03:07:50.651Z,34.03
2022-08-18T03:10:53.832Z,31.73
2022-08-18T03:13:57.442Z,28.70
2022-08-18T03:17:00.074Z,28.48
2022-08-18T03:20:02.599Z,29.95
2022-08-18T03:23:10.138Z,28.83
2022-08-18T03:26:14.620Z,28.83
2022-08-18T03:29:17.002Z,31.20
2022-08-18T03:32:19.044Z,30.80
2022-08-18T03:35:21.211Z,26.13
2022-08-18T03:38:23.144Z,26.58
2022-08-18T03:41:43.589Z,27.77
2022-08-18T03:44:49.205Z,28.90
2022-08-18T03:47:53.390Z,31.80
2022-08-18T03:50:55.703Z,31.13
2022-08-18T03:54:00.859Z,31.52
2022-08-18T03:57:02.774Z,34.53
2022-08-18T04:00:05.573Z,29.02
2022-08-18T04:03:07.930Z,28.70
2022-08-18T04:06:30.239Z,30.10
2022-08-18T04:09:34.160Z,30.10
2022-08-18T04:12:38.019Z,28.98
2022-08-18T04:15:39.937Z,31.80
2022-08-18T04:18:42.144Z,28.95
2022-08-18T04:21:45.086Z,46.55
2022-08-18T04:24:47.347Z,55.10
2022-08-18T04:27:52.010Z,46.50
2022-08-18T04:30:54.863Z,153.05
2022-08-18T04:33:58.906Z,50.97
2022-08-18T04:37:02.395Z,38.80
2022-08-18T04:40:05.942Z,38.30
2022-08-18T04:43:15.266Z,42.00
2022-08-18T04:46:17.306Z,56.15
2022-08-18T04:49:25.595Z,47.13
2022-08-18T04:52:56.834Z,37.25
2022-08-18T04:56:00.476Z,34.00
2022-08-18T04:59:07.017Z,34.08
2022-08-18T05:02:14.520Z,39.67
2022-08-18T05:05:16.956Z,36.40
2022-08-18T05:08:19.069Z,35.65
2022-08-18T05:11:21.823Z,36.92
2022-08-18T05:14:24.723Z,40.00
2022-08-18T05:17:30.044Z,33.63
2022-08-18T05:20:32.861Z,33.97
2022-08-18T05:23:36.167Z,33.90
2022-08-18T05:26:38.319Z,36.85
2022-08-18T05:29:45.936Z,31.88
2022-08-18T05:32:50.278Z,31.95
2022-08-18T05:36:03.584Z,33.50
2022-08-18T05:39:17.758Z,48.92
2022-08-18T05:42:21.777Z,30.67
2022-08-18T05:45:24.695Z,35.30
2022-08-18T05:48:26.795Z,28.95
2022-08-18T05:51:40.910Z,32.35
2022-08-18T05:55:11.682Z,27.63
2022-08-18T05:58:33.520Z,28.55
2022-08-18T06:01:42.194Z,31.33
2022-08-18T06:05:11.964Z,25.30
2022-08-18T06:08:16.749Z,25.77
2022-08-18T06:11:22.713Z,26.65
2022-08-18T06:14:25.439Z,25.75
2022-08-18T06:17:47.519Z,30.50
2022-08-18T06:21:11.770Z,25.35
2022-08-18T06:24:25.562Z,32.22
2022-08-18T06:27:55.886Z,30.88
2022-08-18T06:31:19.203Z,25.13
2022-08-18T06:34:40.734Z,27.23
2022-08-18T06:38:08.640Z,23.95
2022-08-18T06:41:42.330Z,23.77
2022-08-18T06:44:50.480Z,24.35
2022-08-18T06:47:59.915Z,23.25
2022-08-18T06:51:04.064Z,23.63
2022-08-18T06:54:28.030Z,26.80
2022-08-18T06:57:34.565Z,21.33
2022-08-18T07:00:39.109Z,22.33
2022-08-18T07:03:55.089Z,29.10
2022-08-18T07:06:56.987Z,24.73
2022-08-18T07:09:59.486Z,30.45
2022-08-18T07:13:26.551Z,27.70
2022-08-18T07:16:57.144Z,32.63
2022-08-18T07:20:22.511Z,27.00
2022-08-18T07:23:34.856Z,27.83
2022-08-18T07:27:03.752Z,24.50
2022-08-18T07:30:08.935Z,27.15
2022-08-18T07:33:22.293Z,24.60
2022-08-18T07:36:29.230Z,24.88
2022-08-18T07:39:47.294Z,25.50
2022-08-18T07:43:02.713Z,25.90
2022-08-18T07:46:17.531Z,26.80
2022-08-18T07:49:24.875Z,23.75
2022-08-18T07:52:47.027Z,22.30
2022-08-18T07:56:00.113Z,27.85
2022-08-18T07:59:13.321Z,20.55
2022-08-18T08:02:28.901Z,21.77
2022-08-18T08:05:50.680Z,24.67
2022-08-18T08:09:23.112Z,19.70
2022-08-18T08:13:08.393Z,18.20
2022-08-18T08:16:22.902Z,19.73
2022-08-18T08:20:01.630Z,19.95
2022-08-18T08:23:41.017Z,19.85
2022-08-18T08:26:48.047Z,18.02
2022-08-18T08:30:21.054Z,20.73
2022-08-18T08:33:36.104Z,27.85
2022-08-18T08:36:45.206Z,20.73
2022-08-18T08:40:01.748Z,21.60
2022-08-18T08:43:10.832Z,23.98
2022-08-18T08:46:19.903Z,20.95
2022-08-18T08:49:28.799Z,24.98
2022-08-18T08:52:43.698Z,21.20
2022-08-18T08:55:49.210Z,18.35
2022-08-18T08:59:07.011Z,17.25
2022-08-18T09:02:52.201Z,18.27
2022-08-18T09:06:01.236Z,17.15
2022-08-18T09:09:28.263Z,15.77
2022-08-18T09:12:44.915Z,14.82
2022-08-18T09:16:12.190Z,39.45
2022-08-18T09:19:31.192Z,13.48
2022-08-18T09:22:54.545Z,13.43
2022-08-18T09:26:39.399Z,14.70
2022-08-18T09:29:52.991Z,13.25
2022-08-18T09:33:18.700Z,12.65
2022-08-18T09:36:38.646Z,13.35
2022-08-18T09:41:01.708Z,13.30
2022-08-18T09:44:12.134Z,13.15
2022-08-18T09:51:23.418Z,12.40
2022-08-18T09:54:33.593Z,12.13
2022-08-18T09:57:42.398Z,13.00
2022-08-18T10:01:06.556Z,12.80
2022-08-18T10:04:14.342Z,12.52
2022-08-18T10:07:22.219Z,26.85
2022-08-18T10:11:00.855Z,13.35
2022-08-18T10:14:30.054Z,12.23
2022-08-18T10:17:50.383Z,12.65
2022-08-18T10:21:04.830Z,13.35
2022-08-18T10:24:32.035Z,11.90
2022-08-18T10:27:56.888Z,14.15
2022-08-18T10:34:52.301Z,12.07
2022-08-18T10:37:56.726Z,12.95
2022-08-18T10:41:13.050Z,17.92
2022-08-18T10:44:29.112Z,12.98
2022-08-18T10:47:33.522Z,17.45
2022-08-18T10:50:48.960Z,22.90
2022-08-18T10:53:58.942Z,11.60
2022-08-18T10:57:24.192Z,17.70
2022-08-18T11:00:47.404Z,16.42
2022-08-18T11:07:35.826Z,12.32
2022-08-18T11:11:27.295Z,11.70
2022-08-18T11:14:18.710Z,10.82
2022-08-18T11:17:32.936Z,10.93
2022-08-18T11:20:34.852Z,9.82
2022-08-18T11:23:37.933Z,16.38
2022-08-18T11:26:44.767Z,12.15
2022-08-18T11:29:58.910Z,10.65
2022-08-18T11:33:02.876Z,11.73
2022-08-18T11:36:06.752Z,11.95
2022-08-18T11:39:13.119Z,12.07
2022-08-18T11:42:24.924Z,10.48
2022-08-18T11:45:36.277Z,11.23
2022-08-18T11:48:50.851Z,11.80
2022-08-18T11:52:05.623Z,13.85
2022-08-18T11:55:27.784Z,12.55
2022-08-18T11:58:53.942Z,10.98
2022-08-18T12:01:56.630Z,12.07
2022-08-18T12:05:10.379Z,11.05
2022-08-18T12:08:50.990Z,11.90
2022-08-18T12:12:28.285Z,16.40
2022-08-18T12:15:44.471Z,11.85
2022-08-18T12:18:49.567Z,17.98
2022-08-18T12:21:58.493Z,11.30
2022-08-18T12:25:01.708Z,59.35
2022-08-18T12:28:04.431Z,11.50
2022-08-18T12:31:17.277Z,15.35
2022-08-18T12:34:26.549Z,10.90
2022-08-18T12:40:54.332Z,11.13
2022-08-18T12:43:58.448Z,11.30
2022-08-18T12:47:03.269Z,11.52
2022-08-18T12:50:06.464Z,10.65
2022-08-18T12:53:11.336Z,12.27
2022-08-18T12:56:31.689Z,10.75
2022-08-18T12:59:37.720Z,14.57
2022-08-18T13:06:02.713Z,10.70
2022-08-18T13:09:16.354Z,12.02
2022-08-18T13:12:27.710Z,10.00
2022-08-18T13:15:31.057Z,9.95
2022-08-18T13:18:33.192Z,10.68
2022-08-18T13:21:39.090Z,10.48
2022-08-18T13:24:43.665Z,10.75
2022-08-18T13:27:46.355Z,15.55
2022-08-18T13:30:50.681Z,11.35
2022-08-18T13:33:58.022Z,18.48
2022-08-18T13:37:02.259Z,13.30
2022-08-18T13:40:05.165Z,12.65
2022-08-18T13:43:10.443Z,13.38
2022-08-18T13:46:19.679Z,12.05
2022-08-18T13:49:32.430Z,13.73
2022-08-18T13:52:37.005Z,12.38
2022-08-18T13:55:42.108Z,11.73
2022-08-18T13:58:53.377Z,13.15
2022-08-18T14:01:56.068Z,12.70
2022-08-18T14:04:58.579Z,23.42
2022-08-18T14:08:01.720Z,13.23
2022-08-18T14:11:05.747Z,11.75
2022-08-18T14:14:08.683Z,14.60
2022-08-18T14:17:11.389Z,10.93
2022-08-18T14:20:31.930Z,12.30
2022-08-18T14:23:55.135Z,11.00
2022-08-18T14:26:58.848Z,12.70
2022-08-18T14:30:03.254Z,12.48
2022-08-18T14:33:11.384Z,10.52
2022-08-18T14:36:14.978Z,16.33
2022-08-18T14:39:17.598Z,13.43
2022-08-18T14:42:21.097Z,12.68
2022-08-18T14:45:48.821Z,11.13
2022-08-18T14:48:51.047Z,11.45
2022-08-18T14:51:53.164Z,11.45
2022-08-18T14:54:55.444Z,11.00
2022-08-18T14:57:59.301Z,14.50
2022-08-18T15:01:08.348Z,15.50
2022-08-18T15:04:18.588Z,14.23
2022-08-18T15:07:24.035Z,11.75
2022-08-18T15:10:28.210Z,10.52
2022-08-18T15:13:30.652Z,10.63
2022-08-18T15:16:34.921Z,13.38
2022-08-18T15:19:59.934Z,16.67
2022-08-18T15:23:28.005Z,10.65
2022-08-18T15:26:30.975Z,9.80
2022-08-18T15:29:34.058Z,10.20
2022-08-18T15:32:36.058Z,14.35
2022-08-18T15:35:44.187Z,11.07
2022-08-18T15:38:51.504Z,10.07
2022-08-18T15:41:54.029Z,12.10
2022-08-18T15:44:56.717Z,11.27
2022-08-18T15:47:59.441Z,11.13
2022-08-18T15:51:07.956Z,10.48
2022-08-18T15:54:14.907Z,10.77
2022-08-18T15:57:39.655Z,32.08
2022-08-18T16:00:45.511Z,11.73
2022-08-18T16:03:50.027Z,11.65
2022-08-18T16:06:56.102Z,12.70
2022-08-18T16:09:58.337Z,9.60
2022-08-18T16:13:04.591Z,11.38
2022-08-18T16:16:35.692Z,11.48
2022-08-18T16:19:38.678Z,18.20
2022-08-18T16:22:40.972Z,10.20
2022-08-18T16:25:44.044Z,39.45
2022-08-18T16:28:50.671Z,11.27
2022-08-18T16:31:52.985Z,9.90
2022-08-18T16:34:54.969Z,9.95
2022-08-18T16:38:02.780Z,12.93
2022-08-18T16:41:15.004Z,10.23
2022-08-18T16:44:17.359Z,9.57
2022-08-18T16:47:19.341Z,10.02
2022-08-18T16:50:23.417Z,21.80
2022-08-18T16:53:25.302Z,9.13
2022-08-18T16:56:41.821Z,10.98
2022-08-18T17:00:02.600Z,10.38
2022-08-18T17:03:27.175Z,15.25
2022-08-18T17:06:29.459Z,8.80
2022-08-18T17:09:33.200Z,9.88
2022-08-18T17:12:35.309Z,11.63
2022-08-18T17:15:37.399Z,21.50
2022-08-18T17:18:39.951Z,15.77
2022-08-18T17:21:42.072Z,12.57
2022-08-18T17:24:49.796Z,10.07
2022-08-18T17:27:52.977Z,9.45
2022-08-18T17:30:55.375Z,10.05
2022-08-18T17:34:05.363Z,15.38
2022-08-18T17:37:10.176Z,9.52
2022-08-18T17:40:18.134Z,9.45
2022-08-18T17:43:23.276Z,14.73
2022-08-18T17:46:32.347Z,12.35
2022-08-18T17:50:26.690Z,11.35
2022-08-18T17:53:22.795Z,15.70
2022-08-18T17:56:35.700Z,15.07
2022-08-18T18:00:02.704Z,14.75
2022-08-18T18:03:05.725Z,13.73
2022-08-18T18:06:37.706Z,12.75
2022-08-18T18:09:39.637Z,12.23
2022-08-18T18:12:42.122Z,13.75
2022-08-18T18:15:51.370Z,13.10
2022-08-18T18:19:01.298Z,11.32
2022-08-18T18:22:07.110Z,11.55
2022-08-18T18:25:11.879Z,13.88
2022-08-18T18:28:35.104Z,11.30
2022-08-18T18:31:37.601Z,14.00
2022-08-18T18:35:00.558Z,12.50
2022-08-18T18:38:06.850Z,24.15
2022-08-18T18:41:08.710Z,17.10
2022-08-18T18:44:13.696Z,13.90
2022-08-18T18:47:32.136Z,12.00
2022-08-18T18:51:10.309Z,17.02
2022-08-18T18:54:49.603Z,12.80
2022-08-18T18:57:59.679Z,12.82
2022-08-18T19:01:04.746Z,12.82
2022-08-18T19:04:15.681Z,15.15
2022-08-18T19:07:37.698Z,14.18
2022-08-18T19:11:14.251Z,16.27
2022-08-18T19:14:26.620Z,15.00
2022-08-18T19:17:34.199Z,12.73
2022-08-18T19:20:43.188Z,14.23
2022-08-18T19:24:21.309Z,19.63
2022-08-18T19:27:39.920Z,12.93
2022-08-18T19:30:46.196Z,13.65
2022-08-18T19:33:53.074Z,14.60
2022-08-18T19:37:41.428Z,13.35
2022-08-18T19:40:47.281Z,17.95
2022-08-18T19:43:53.111Z,13.05
2022-08-18T19:47:03.352Z,17.63
2022-08-18T19:50:17.004Z,15.35
2022-08-18T19:53:29.849Z,18.88
2022-08-18T19:57:06.106Z,18.33
2022-08-18T20:00:14.877Z,13.32
2022-08-18T20:03:33.746Z,14.75
2022-08-18T20:06:56.319Z,12.82
2022-08-18T20:10:26.055Z,16.58
2022-08-18T20:13:35.261Z,12.70
2022-08-18T20:16:43.383Z,13.15
2022-08-18T20:19:54.841Z,14.70
2022-08-18T20:22:58.878Z,16.85
2022-08-18T20:26:01.354Z,17.40
2022-08-18T20:29:06.916Z,19.40
2022-08-18T20:32:34.475Z,15.25
2022-08-18T20:36:04.657Z,15.68
2022-08-18T20:39:32.255Z,16.13
2022-08-18T20:42:37.450Z,18.30
2022-08-18T20:45:46.130Z,12.70
2022-08-18T20:49:08.960Z,14.48
2022-08-18T20:52:16.844Z,13.65
2022-08-18T20:55:41.093Z,15.68
2022-08-18T20:58:57.432Z,15.70
2022-08-18T21:02:04.521Z,17.73
2022-08-18T21:05:10.455Z,18.35
2022-08-18T21:08:31.652Z,14.65
2022-08-18T21:11:47.039Z,14.32
2022-08-18T21:14:54.823Z,14.32
2022-08-18T21:17:58.898Z,13.90
2022-08-18T21:21:06.529Z,14.50
2022-08-18T21:24:31.606Z,13.95
2022-08-18T21:27:37.471Z,14.68
2022-08-18T21:30:39.681Z,14.23
2022-08-18T21:33:50.192Z,14.88
2022-08-18T21:36:55.075Z,15.20
2022-08-18T21:39:59.366Z,14.38
2022-08-18T21:43:01.788Z,14.95
2022-08-18T21:46:04.372Z,13.50
2022-08-18T21:49:06.925Z,14.70
2022-08-18T21:52:24.710Z,14.50
2022-08-18T21:55:33.631Z,14.75
2022-08-18T21:58:45.411Z,15.40
2022-08-18T22:01:53.469Z,16.73
2022-08-18T22:04:55.611Z,16.77
2022-08-18T22:07:57.802Z,15.18
2022-08-18T22:11:43.551Z,15.05
2022-08-18T22:15:16.169Z,14.70
2022-08-18T22:18:18.232Z,16.02
2022-08-18T22:21:36.430Z,18.10
2022-08-18T22:24:38.918Z,14.35
2022-08-18T22:27:48.571Z,15.32
2022-08-18T22:30:50.723Z,17.23
2022-08-18T22:33:54.020Z,15.55
2022-08-18T22:37:01.823Z,16.85
2022-08-18T22:40:11.356Z,19.27
2022-08-18T22:43:13.584Z,17.70
2022-08-18T22:46:24.409Z,19.77
2022-08-18T22:49:27.013Z,18.38
2022-08-18T22:52:36.777Z,18.23
2022-08-18T22:55:39.054Z,18.98
2022-08-18T22:58:42.310Z,25.65
2022-08-18T23:01:48.888Z,23.73
2022-08-18T23:04:50.914Z,22.90
2022-08-18T23:07:53.611Z,23.55
2022-08-18T23:10:55.542Z,20.88
2022-08-18T23:14:00.472Z,19.15
2022-08-18T23:17:04.322Z,23.02
2022-08-18T23:20:11.389Z,22.15
2022-08-18T23:23:15.068Z,22.45
2022-08-18T23:26:17.211Z,21.33
2022-08-18T23:29:25.398Z,23.27
2022-08-18T23:32:29.594Z,19.13
2022-08-18T23:35:34.428Z,17.73
2022-08-18T23:38:38.313Z,18.52
2022-08-18T23:41:41.343Z,22.48
2022-08-18T23:44:43.503Z,20.17
2022-08-18T23:47:45.492Z,19.30
2022-08-18T23:50:48.677Z,19.30
2022-08-18T23:53:52.282Z,18.75
2022-08-18T23:56:56.177Z,18.42
2022-08-18T23:59:58.128Z,16.67
